Tilghman, Maryland
Current Conditions -  °F | °C
As of 11:50 AM on Wednesday 26 Nov 2014 (Local Time) from KESN Reporting Station
Heavy Rain Heavy Rain  
Wind Chill: 32°   Ceiling: 800
Heat Index: 39°   Visibility: 2mi
Dew Point: 39°   Wind: 10mph
Humidity: 100%   Direction: 10°N
Pressure: 30.01"   Gusts: 16mph
Location:  38.72°N, 76.33°W
Report Text: KESN 261650Z 01009G14KT 2SM +RA BR BKN008 04/04 A3001
Loading
Personal Weather Stations






























Interactive Weather Map New forecast layout! Learn more

10-Day Weather Forecast

Advertisements
Track Severe Weather on mobile